sensor_id;sensor_type;location;lat;lon;timestamp;temperature;humidity
15543;DHT22;7873;52.230;12.856;2023-08-01T00:01:55;24.00;56.00
15543;DHT22;7873;52.230;12.856;2023-08-01T00:04:22;24.00;56.00
15543;DHT22;7873;52.230;12.856;2023-08-01T00:06:48;24.00;55.90
15543;DHT22;7873;52.230;12.856;2023-08-01T00:09:15;24.10;56.00
15543;DHT22;7873;52.230;12.856;2023-08-01T00:11:42;24.00;55.90
15543;DHT22;7873;52.230;12.856;2023-08-01T00:14:08;24.10;55.90
15543;DHT22;7873;52.230;12.856;2023-08-01T00:16:35;24.00;55.90
15543;DHT22;7873;52.230;12.856;2023-08-01T00:19:03;24.10;55.90
15543;DHT22;7873;52.230;12.856;2023-08-01T00:21:30;24.00;55.90
15543;DHT22;7873;52.230;12.856;2023-08-01T00:23:57;24.00;55.80
15543;DHT22;7873;52.230;12.856;2023-08-01T00:26:24;24.10;55.90
15543;DHT22;7873;52.230;12.856;2023-08-01T00:28:50;24.10;55.80
15543;DHT22;7873;52.230;12.856;2023-08-01T00:31:17;24.10;55.90
15543;DHT22;7873;52.230;12.856;2023-08-01T00:33:44;24.10;55.80
15543;DHT22;7873;52.230;12.856;2023-08-01T00:36:12;24.10;55.90
15543;DHT22;7873;52.230;12.856;2023-08-01T00:38:38;24.00;55.90
15543;DHT22;7873;52.230;12.856;2023-08-01T00:41:07;24.00;55.90
15543;DHT22;7873;52.230;12.856;2023-08-01T00:43:33;24.00;55.90
15543;DHT22;7873;52.230;12.856;2023-08-01T00:46:00;24.10;55.90
15543;DHT22;7873;52.230;12.856;2023-08-01T00:48:31;24.10;55.70
15543;DHT22;7873;52.230;12.856;2023-08-01T00:50:59;24.10;55.60
15543;DHT22;7873;52.230;12.856;2023-08-01T00:53:28;24.10;55.60
15543;DHT22;7873;52.230;12.856;2023-08-01T00:55:56;24.10;55.50
15543;DHT22;7873;52.230;12.856;2023-08-01T00:58:24;24.10;55.50
15543;DHT22;7873;52.230;12.856;2023-08-01T01:00:50;24.10;55.70
15543;DHT22;7873;52.230;12.856;2023-08-01T01:03:17;24.10;55.60
15543;DHT22;7873;52.230;12.856;2023-08-01T01:05:47;24.10;55.50
15543;DHT22;7873;52.230;12.856;2023-08-01T01:08:19;24.10;55.70
15543;DHT22;7873;52.230;12.856;2023-08-01T01:10:48;24.10;55.60
15543;DHT22;7873;52.230;12.856;2023-08-01T01:13:14;24.20;55.50
15543;DHT22;7873;52.230;12.856;2023-08-01T01:15:41;24.10;55.40
15543;DHT22;7873;52.230;12.856;2023-08-01T01:18:08;24.20;55.40
15543;DHT22;7873;52.230;12.856;2023-08-01T01:20:36;24.20;55.20
15543;DHT22;7873;52.230;12.856;2023-08-01T01:23:03;24.20;55.30
15543;DHT22;7873;52.230;12.856;2023-08-01T01:25:31;24.20;55.30
15543;DHT22;7873;52.230;12.856;2023-08-01T01:27:59;24.20;55.00
15543;DHT22;7873;52.230;12.856;2023-08-01T01:30:27;24.30;55.10
15543;DHT22;7873;52.230;12.856;2023-08-01T01:32:55;24.20;55.10
15543;DHT22;7873;52.230;12.856;2023-08-01T01:35:22;24.20;55.10
15543;DHT22;7873;52.230;12.856;2023-08-01T01:37:51;24.20;55.10
15543;DHT22;7873;52.230;12.856;2023-08-01T01:40:17;24.20;55.10
15543;DHT22;7873;52.230;12.856;2023-08-01T01:42:44;24.20;55.10
15543;DHT22;7873;52.230;12.856;2023-08-01T01:45:11;24.20;55.10
15543;DHT22;7873;52.230;12.856;2023-08-01T01:47:38;24.20;55.00
15543;DHT22;7873;52.230;12.856;2023-08-01T01:50:05;24.20;55.00
15543;DHT22;7873;52.230;12.856;2023-08-01T01:52:32;24.30;55.00
15543;DHT22;7873;52.230;12.856;2023-08-01T01:55:00;24.30;55.00
15543;DHT22;7873;52.230;12.856;2023-08-01T01:57:26;24.20;55.10
15543;DHT22;7873;52.230;12.856;2023-08-01T01:59:53;24.20;55.10
15543;DHT22;7873;52.230;12.856;2023-08-01T02:02:20;24.20;55.00
15543;DHT22;7873;52.230;12.856;2023-08-01T02:04:48;24.20;54.90
15543;DHT22;7873;52.230;12.856;2023-08-01T02:07:16;24.30;54.90
15543;DHT22;7873;52.230;12.856;2023-08-01T02:09:43;24.30;54.80
15543;DHT22;7873;52.230;12.856;2023-08-01T02:12:11;24.30;54.70
15543;DHT22;7873;52.230;12.856;2023-08-01T02:14:39;24.30;54.70
15543;DHT22;7873;52.230;12.856;2023-08-01T02:17:06;24.30;54.80
15543;DHT22;7873;52.230;12.856;2023-08-01T02:19:33;24.30;54.80
15543;DHT22;7873;52.230;12.856;2023-08-01T02:21:59;24.30;54.70
15543;DHT22;7873;52.230;12.856;2023-08-01T02:24:26;24.30;54.70
15543;DHT22;7873;52.230;12.856;2023-08-01T02:26:53;24.30;54.70
15543;DHT22;7873;52.230;12.856;2023-08-01T02:29:21;24.30;54.70
15543;DHT22;7873;52.230;12.856;2023-08-01T02:31:47;24.30;54.60
15543;DHT22;7873;52.230;12.856;2023-08-01T02:34:14;24.30;54.60
15543;DHT22;7873;52.230;12.856;2023-08-01T02:36:41;24.30;54.60
15543;DHT22;7873;52.230;12.856;2023-08-01T02:39:07;24.20;54.80
15543;DHT22;7873;52.230;12.856;2023-08-01T02:41:34;24.20;55.50
15543;DHT22;7873;52.230;12.856;2023-08-01T02:44:01;24.20;54.80
15543;DHT22;7873;52.230;12.856;2023-08-01T02:46:29;24.20;54.70
15543;DHT22;7873;52.230;12.856;2023-08-01T02:48:56;24.20;54.80
15543;DHT22;7873;52.230;12.856;2023-08-01T02:51:23;24.20;54.80
15543;DHT22;7873;52.230;12.856;2023-08-01T02:53:50;24.10;55.10
15543;DHT22;7873;52.230;12.856;2023-08-01T02:56:16;24.10;55.20
15543;DHT22;7873;52.230;12.856;2023-08-01T02:58:43;24.00;55.20
15543;DHT22;7873;52.230;12.856;2023-08-01T03:01:10;24.00;55.30
15543;DHT22;7873;52.230;12.856;2023-08-01T03:03:38;24.00;55.60
15543;DHT22;7873;52.230;12.856;2023-08-01T03:06:06;24.00;55.80
15543;DHT22;7873;52.230;12.856;2023-08-01T03:08:33;24.00;55.80
15543;DHT22;7873;52.230;12.856;2023-08-01T03:11:00;24.00;55.80
15543;DHT22;7873;52.230;12.856;2023-08-01T03:13:27;24.10;55.70
15543;DHT22;7873;52.230;12.856;2023-08-01T03:15:54;24.10;55.60
15543;DHT22;7873;52.230;12.856;2023-08-01T03:18:20;24.10;55.60
15543;DHT22;7873;52.230;12.856;2023-08-01T03:20:49;24.10;55.60
15543;DHT22;7873;52.230;12.856;2023-08-01T03:23:16;24.20;55.50
15543;DHT22;7873;52.230;12.856;2023-08-01T03:25:43;24.20;56.40
15543;DHT22;7873;52.230;12.856;2023-08-01T03:28:10;24.10;55.60
15543;DHT22;7873;52.230;12.856;2023-08-01T03:30:37;24.10;55.60
15543;DHT22;7873;52.230;12.856;2023-08-01T03:33:04;24.10;55.70
15543;DHT22;7873;52.230;12.856;2023-08-01T03:35:31;24.10;55.80
15543;DHT22;7873;52.230;12.856;2023-08-01T03:37:59;24.10;56.60
15543;DHT22;7873;52.230;12.856;2023-08-01T03:40:25;24.10;55.80
15543;DHT22;7873;52.230;12.856;2023-08-01T03:42:52;24.10;56.00
15543;DHT22;7873;52.230;12.856;2023-08-01T03:45:19;24.10;56.10
15543;DHT22;7873;52.230;12.856;2023-08-01T03:47:46;24.10;56.00
15543;DHT22;7873;52.230;12.856;2023-08-01T03:50:12;24.20;55.80
15543;DHT22;7873;52.230;12.856;2023-08-01T03:52:40;24.20;55.80
15543;DHT22;7873;52.230;12.856;2023-08-01T03:55:08;24.20;55.90
15543;DHT22;7873;52.230;12.856;2023-08-01T03:57:34;24.20;55.90
15543;DHT22;7873;52.230;12.856;2023-08-01T04:00:02;24.20;55.80
15543;DHT22;7873;52.230;12.856;2023-08-01T04:02:29;24.20;55.80
15543;DHT22;7873;52.230;12.856;2023-08-01T04:04:56;24.20;55.80
15543;DHT22;7873;52.230;12.856;2023-08-01T04:07:22;24.20;55.80
15543;DHT22;7873;52.230;12.856;2023-08-01T04:09:49;24.20;55.80
15543;DHT22;7873;52.230;12.856;2023-08-01T04:12:17;24.20;55.80
15543;DHT22;7873;52.230;12.856;2023-08-01T04:14:44;24.10;56.10
15543;DHT22;7873;52.230;12.856;2023-08-01T04:17:10;24.20;56.20
15543;DHT22;7873;52.230;12.856;2023-08-01T04:19:37;24.30;55.80
15543;DHT22;7873;52.230;12.856;2023-08-01T04:22:04;24.30;56.10
15543;DHT22;7873;52.230;12.856;2023-08-01T04:24:31;24.30;56.20
15543;DHT22;7873;52.230;12.856;2023-08-01T04:26:57;24.20;56.40
15543;DHT22;7873;52.230;12.856;2023-08-01T04:29:25;24.10;56.60
15543;DHT22;7873;52.230;12.856;2023-08-01T04:31:52;24.10;56.70
15543;DHT22;7873;52.230;12.856;2023-08-01T04:34:19;24.10;56.90
15543;DHT22;7873;52.230;12.856;2023-08-01T04:36:45;24.10;56.80
15543;DHT22;7873;52.230;12.856;2023-08-01T04:39:12;24.10;57.10
15543;DHT22;7873;52.230;12.856;2023-08-01T04:41:39;24.10;56.90
15543;DHT22;7873;52.230;12.856;2023-08-01T04:44:05;24.10;56.90
15543;DHT22;7873;52.230;12.856;2023-08-01T04:46:34;24.10;56.90
15543;DHT22;7873;52.230;12.856;2023-08-01T04:49:00;24.20;56.90
15543;DHT22;7873;52.230;12.856;2023-08-01T04:51:27;24.20;57.60
15543;DHT22;7873;52.230;12.856;2023-08-01T04:53:54;24.20;56.90
15543;DHT22;7873;52.230;12.856;2023-08-01T04:56:20;24.20;57.10
15543;DHT22;7873;52.230;12.856;2023-08-01T04:58:47;24.20;57.00
15543;DHT22;7873;52.230;12.856;2023-08-01T05:01:14;24.20;56.90
15543;DHT22;7873;52.230;12.856;2023-08-01T05:03:42;24.20;57.00
15543;DHT22;7873;52.230;12.856;2023-08-01T05:06:08;24.20;57.00
15543;DHT22;7873;52.230;12.856;2023-08-01T05:08:35;24.10;57.30
15543;DHT22;7873;52.230;12.856;2023-08-01T05:11:02;24.10;57.20
15543;DHT22;7873;52.230;12.856;2023-08-01T05:13:29;24.20;56.90
15543;DHT22;7873;52.230;12.856;2023-08-01T05:15:55;24.30;56.80
15543;DHT22;7873;52.230;12.856;2023-08-01T05:18:22;24.20;56.80
15543;DHT22;7873;52.230;12.856;2023-08-01T05:20:51;24.20;57.10
15543;DHT22;7873;52.230;12.856;2023-08-01T05:23:18;24.10;57.20
15543;DHT22;7873;52.230;12.856;2023-08-01T05:25:45;24.10;57.10
15543;DHT22;7873;52.230;12.856;2023-08-01T05:28:11;24.30;57.10
15543;DHT22;7873;52.230;12.856;2023-08-01T05:30:38;24.20;56.90
15543;DHT22;7873;52.230;12.856;2023-08-01T05:33:05;24.20;57.10
15543;DHT22;7873;52.230;12.856;2023-08-01T05:35:31;24.30;57.20
15543;DHT22;7873;52.230;12.856;2023-08-01T05:37:59;24.30;57.10
15543;DHT22;7873;52.230;12.856;2023-08-01T05:40:26;24.30;57.10
15543;DHT22;7873;52.230;12.856;2023-08-01T05:42:53;24.20;57.10
15543;DHT22;7873;52.230;12.856;2023-08-01T05:45:20;24.20;57.10
15543;DHT22;7873;52.230;12.856;2023-08-01T05:47:46;24.10;57.10
15543;DHT22;7873;52.230;12.856;2023-08-01T05:50:13;24.20;57.20
15543;DHT22;7873;52.230;12.856;2023-08-01T05:52:40;24.20;56.80
15543;DHT22;7873;52.230;12.856;2023-08-01T05:55:08;24.30;56.80
15543;DHT22;7873;52.230;12.856;2023-08-01T05:57:35;24.30;56.70
15543;DHT22;7873;52.230;12.856;2023-08-01T06:00:02;24.30;56.50
15543;DHT22;7873;52.230;12.856;2023-08-01T06:02:29;24.30;56.40
15543;DHT22;7873;52.230;12.856;2023-08-01T06:04:56;24.40;56.40
15543;DHT22;7873;52.230;12.856;2023-08-01T06:07:23;24.40;56.10
15543;DHT22;7873;52.230;12.856;2023-08-01T06:09:49;24.40;55.90
15543;DHT22;7873;52.230;12.856;2023-08-01T06:12:18;24.50;55.80
15543;DHT22;7873;52.230;12.856;2023-08-01T06:14:45;24.40;55.90
15543;DHT22;7873;52.230;12.856;2023-08-01T06:17:12;24.40;56.00
15543;DHT22;7873;52.230;12.856;2023-08-01T06:19:39;24.40;55.90
15543;DHT22;7873;52.230;12.856;2023-08-01T06:22:05;24.40;55.90
15543;DHT22;7873;52.230;12.856;2023-08-01T06:24:32;24.40;56.00
15543;DHT22;7873;52.230;12.856;2023-08-01T06:26:59;24.40;56.00
15543;DHT22;7873;52.230;12.856;2023-08-01T06:29:27;24.30;56.20
15543;DHT22;7873;52.230;12.856;2023-08-01T06:31:54;24.30;56.10
15543;DHT22;7873;52.230;12.856;2023-08-01T06:34:21;24.40;56.10
15543;DHT22;7873;52.230;12.856;2023-08-01T06:36:47;24.40;56.00
15543;DHT22;7873;52.230;12.856;2023-08-01T06:39:14;24.40;55.90
15543;DHT22;7873;52.230;12.856;2023-08-01T06:41:41;24.40;56.10
15543;DHT22;7873;52.230;12.856;2023-08-01T06:44:07;24.30;56.10
15543;DHT22;7873;52.230;12.856;2023-08-01T06:46:35;24.30;56.20
15543;DHT22;7873;52.230;12.856;2023-08-01T06:49:02;24.30;56.40
15543;DHT22;7873;52.230;12.856;2023-08-01T06:51:29;24.20;56.30
15543;DHT22;7873;52.230;12.856;2023-08-01T06:53:55;24.20;56.40
15543;DHT22;7873;52.230;12.856;2023-08-01T06:56:22;24.30;56.20
15543;DHT22;7873;52.230;12.856;2023-08-01T06:58:49;24.30;56.10
15543;DHT22;7873;52.230;12.856;2023-08-01T07:01:16;24.30;56.10
15543;DHT22;7873;52.230;12.856;2023-08-01T07:03:44;24.30;55.90
15543;DHT22;7873;52.230;12.856;2023-08-01T07:06:11;24.30;56.10
15543;DHT22;7873;52.230;12.856;2023-08-01T07:08:37;24.30;56.20
15543;DHT22;7873;52.230;12.856;2023-08-01T07:11:04;24.30;56.10
15543;DHT22;7873;52.230;12.856;2023-08-01T07:13:31;24.30;55.90
15543;DHT22;7873;52.230;12.856;2023-08-01T07:15:58;24.30;55.90
15543;DHT22;7873;52.230;12.856;2023-08-01T07:18:24;24.30;56.10
15543;DHT22;7873;52.230;12.856;2023-08-01T07:21:00;24.30;56.20
15543;DHT22;7873;52.230;12.856;2023-08-01T07:23:26;24.30;56.10
15543;DHT22;7873;52.230;12.856;2023-08-01T07:25:53;24.20;56.20
15543;DHT22;7873;52.230;12.856;2023-08-01T07:28:20;24.20;56.40
15543;DHT22;7873;52.230;12.856;2023-08-01T07:30:47;24.10;56.40
15543;DHT22;7873;52.230;12.856;2023-08-01T07:33:13;24.10;56.60
15543;DHT22;7873;52.230;12.856;2023-08-01T07:35:40;24.10;56.70
15543;DHT22;7873;52.230;12.856;2023-08-01T07:38:08;24.10;56.60
15543;DHT22;7873;52.230;12.856;2023-08-01T07:40:36;24.10;56.60
15543;DHT22;7873;52.230;12.856;2023-08-01T07:43:02;24.10;56.70
15543;DHT22;7873;52.230;12.856;2023-08-01T07:45:29;24.10;56.80
15543;DHT22;7873;52.230;12.856;2023-08-01T07:47:58;24.10;56.90
15543;DHT22;7873;52.230;12.856;2023-08-01T07:50:25;24.10;56.80
15543;DHT22;7873;52.230;12.856;2023-08-01T07:52:52;24.10;56.60
15543;DHT22;7873;52.230;12.856;2023-08-01T07:55:20;24.20;56.40
15543;DHT22;7873;52.230;12.856;2023-08-01T07:57:47;24.10;56.40
15543;DHT22;7873;52.230;12.856;2023-08-01T08:00:14;24.20;56.40
15543;DHT22;7873;52.230;12.856;2023-08-01T08:02:41;24.10;56.60
15543;DHT22;7873;52.230;12.856;2023-08-01T08:05:08;24.10;56.50
15543;DHT22;7873;52.230;12.856;2023-08-01T08:07:35;24.10;56.60
15543;DHT22;7873;52.230;12.856;2023-08-01T08:10:02;24.10;56.90
15543;DHT22;7873;52.230;12.856;2023-08-01T08:12:31;24.00;57.00
15543;DHT22;7873;52.230;12.856;2023-08-01T08:14:58;24.00;57.80
15543;DHT22;7873;52.230;12.856;2023-08-01T08:17:25;23.90;57.10
15543;DHT22;7873;52.230;12.856;2023-08-01T08:19:52;23.90;57.10
15543;DHT22;7873;52.230;12.856;2023-08-01T08:22:18;23.90;57.10
15543;DHT22;7873;52.230;12.856;2023-08-01T08:24:45;23.90;57.30
15543;DHT22;7873;52.230;12.856;2023-08-01T08:27:12;23.90;57.30
15543;DHT22;7873;52.230;12.856;2023-08-01T08:29:40;23.90;57.30
15543;DHT22;7873;52.230;12.856;2023-08-01T08:32:07;23.90;57.30
15543;DHT22;7873;52.230;12.856;2023-08-01T08:34:34;23.90;57.30
15543;DHT22;7873;52.230;12.856;2023-08-01T08:37:00;23.90;57.30
15543;DHT22;7873;52.230;12.856;2023-08-01T08:39:27;23.80;57.30
15543;DHT22;7873;52.230;12.856;2023-08-01T08:41:54;23.90;57.30
15543;DHT22;7873;52.230;12.856;2023-08-01T08:44:21;23.80;57.30
15543;DHT22;7873;52.230;12.856;2023-08-01T08:46:51;23.80;57.30
15543;DHT22;7873;52.230;12.856;2023-08-01T08:49:19;23.80;57.30
15543;DHT22;7873;52.230;12.856;2023-08-01T08:51:46;23.80;57.30
15543;DHT22;7873;52.230;12.856;2023-08-01T08:54:14;23.80;57.30
15543;DHT22;7873;52.230;12.856;2023-08-01T08:56:42;23.80;57.30
15543;DHT22;7873;52.230;12.856;2023-08-01T08:59:09;23.90;57.30
15543;DHT22;7873;52.230;12.856;2023-08-01T09:01:37;23.90;57.30
15543;DHT22;7873;52.230;12.856;2023-08-01T09:04:05;23.90;57.30
15543;DHT22;7873;52.230;12.856;2023-08-01T09:06:34;23.90;57.30
15543;DHT22;7873;52.230;12.856;2023-08-01T09:09:04;23.90;57.20
15543;DHT22;7873;52.230;12.856;2023-08-01T09:11:40;23.90;57.20
15543;DHT22;7873;52.230;12.856;2023-08-01T09:14:09;23.90;57.30
15543;DHT22;7873;52.230;12.856;2023-08-01T09:16:36;23.90;57.30
15543;DHT22;7873;52.230;12.856;2023-08-01T09:19:03;23.80;57.20
15543;DHT22;7873;52.230;12.856;2023-08-01T09:21:34;23.90;57.30
15543;DHT22;7873;52.230;12.856;2023-08-01T09:24:09;23.90;57.30
15543;DHT22;7873;52.230;12.856;2023-08-01T09:26:36;23.80;57.30
15543;DHT22;7873;52.230;12.856;2023-08-01T09:29:04;23.80;57.30
15543;DHT22;7873;52.230;12.856;2023-08-01T09:31:32;23.80;57.40
15543;DHT22;7873;52.230;12.856;2023-08-01T09:34:00;23.80;57.40
15543;DHT22;7873;52.230;12.856;2023-08-01T09:36:30;23.80;57.40
15543;DHT22;7873;52.230;12.856;2023-08-01T09:38:57;23.80;57.40
15543;DHT22;7873;52.230;12.856;2023-08-01T09:41:25;23.80;57.30
15543;DHT22;7873;52.230;12.856;2023-08-01T09:43:52;23.80;57.30
15543;DHT22;7873;52.230;12.856;2023-08-01T09:46:18;23.80;57.30
15543;DHT22;7873;52.230;12.856;2023-08-01T09:48:45;23.80;57.30
15543;DHT22;7873;52.230;12.856;2023-08-01T09:51:13;23.90;57.30
15543;DHT22;7873;52.230;12.856;2023-08-01T09:53:48;23.80;57.30
15543;DHT22;7873;52.230;12.856;2023-08-01T09:56:19;23.80;57.30
15543;DHT22;7873;52.230;12.856;2023-08-01T09:58:47;23.80;57.30
15543;DHT22;7873;52.230;12.856;2023-08-01T10:01:14;23.90;57.30
15543;DHT22;7873;52.230;12.856;2023-08-01T10:03:44;23.90;57.30
15543;DHT22;7873;52.230;12.856;2023-08-01T10:06:13;23.90;57.10
15543;DHT22;7873;52.230;12.856;2023-08-01T10:08:43;23.90;57.10
15543;DHT22;7873;52.230;12.856;2023-08-01T10:11:12;23.90;57.10
15543;DHT22;7873;52.230;12.856;2023-08-01T10:13:41;23.90;57.10
15543;DHT22;7873;52.230;12.856;2023-08-01T10:16:08;23.90;57.30
15543;DHT22;7873;52.230;12.856;2023-08-01T10:18:35;23.90;57.10
15543;DHT22;7873;52.230;12.856;2023-08-01T10:21:04;24.00;57.10
15543;DHT22;7873;52.230;12.856;2023-08-01T10:23:32;24.00;57.00
15543;DHT22;7873;52.230;12.856;2023-08-01T10:25:59;23.90;57.10
15543;DHT22;7873;52.230;12.856;2023-08-01T10:28:32;24.00;57.20
15543;DHT22;7873;52.230;12.856;2023-08-01T10:31:09;23.90;57.20
15543;DHT22;7873;52.230;12.856;2023-08-01T10:33:36;23.90;57.30
15543;DHT22;7873;52.230;12.856;2023-08-01T10:36:12;23.90;57.30
15543;DHT22;7873;52.230;12.856;2023-08-01T10:38:44;23.90;57.20
15543;DHT22;7873;52.230;12.856;2023-08-01T10:41:17;23.90;57.10
15543;DHT22;7873;52.230;12.856;2023-08-01T10:43:46;23.90;57.30
15543;DHT22;7873;52.230;12.856;2023-08-01T10:46:13;23.90;57.30
15543;DHT22;7873;52.230;12.856;2023-08-01T10:48:47;23.90;57.30
15543;DHT22;7873;52.230;12.856;2023-08-01T10:51:14;23.90;57.30
15543;DHT22;7873;52.230;12.856;2023-08-01T10:53:41;23.90;57.30
15543;DHT22;7873;52.230;12.856;2023-08-01T10:56:08;24.00;57.10
15543;DHT22;7873;52.230;12.856;2023-08-01T10:58:42;24.00;57.10
15543;DHT22;7873;52.230;12.856;2023-08-01T11:01:10;24.00;57.00
15543;DHT22;7873;52.230;12.856;2023-08-01T11:03:36;24.00;57.00
15543;DHT22;7873;52.230;12.856;2023-08-01T11:06:04;24.00;56.90
15543;DHT22;7873;52.230;12.856;2023-08-01T11:08:35;24.00;57.00
15543;DHT22;7873;52.230;12.856;2023-08-01T11:11:03;23.90;57.20
15543;DHT22;7873;52.230;12.856;2023-08-01T11:13:31;23.90;57.40
15543;DHT22;7873;52.230;12.856;2023-08-01T11:16:00;23.80;57.40
15543;DHT22;7873;52.230;12.856;2023-08-01T11:18:29;23.80;57.50
15543;DHT22;7873;52.230;12.856;2023-08-01T11:20:56;23.80;57.50
15543;DHT22;7873;52.230;12.856;2023-08-01T11:23:27;23.80;57.60
15543;DHT22;7873;52.230;12.856;2023-08-01T11:25:54;23.70;57.50
15543;DHT22;7873;52.230;12.856;2023-08-01T11:28:21;23.70;57.60
15543;DHT22;7873;52.230;12.856;2023-08-01T11:30:48;23.70;57.60
15543;DHT22;7873;52.230;12.856;2023-08-01T11:33:15;23.70;57.60
15543;DHT22;7873;52.230;12.856;2023-08-01T11:35:43;23.70;57.60
15543;DHT22;7873;52.230;12.856;2023-08-01T11:38:10;23.70;57.60
15543;DHT22;7873;52.230;12.856;2023-08-01T11:40:37;23.70;57.60
15543;DHT22;7873;52.230;12.856;2023-08-01T11:43:04;23.70;57.50
15543;DHT22;7873;52.230;12.856;2023-08-01T11:45:31;23.70;57.60
15543;DHT22;7873;52.230;12.856;2023-08-01T11:47:58;23.70;57.50
15543;DHT22;7873;52.230;12.856;2023-08-01T11:50:25;23.80;57.60
15543;DHT22;7873;52.230;12.856;2023-08-01T11:52:53;23.80;57.60
15543;DHT22;7873;52.230;12.856;2023-08-01T11:55:21;23.70;57.50
15543;DHT22;7873;52.230;12.856;2023-08-01T11:57:55;23.80;57.60
15543;DHT22;7873;52.230;12.856;2023-08-01T12:00:23;23.80;57.60
15543;DHT22;7873;52.230;12.856;2023-08-01T12:02:51;23.80;57.50
15543;DHT22;7873;52.230;12.856;2023-08-01T12:05:21;23.70;57.50
15543;DHT22;7873;52.230;12.856;2023-08-01T12:07:48;23.80;57.50
15543;DHT22;7873;52.230;12.856;2023-08-01T12:10:16;23.70;57.40
15543;DHT22;7873;52.230;12.856;2023-08-01T12:12:44;23.80;57.50
15543;DHT22;7873;52.230;12.856;2023-08-01T12:15:12;23.80;57.40
15543;DHT22;7873;52.230;12.856;2023-08-01T12:17:39;23.80;57.50
15543;DHT22;7873;52.230;12.856;2023-08-01T12:20:07;23.80;57.40
15543;DHT22;7873;52.230;12.856;2023-08-01T12:22:34;23.80;57.40
15543;DHT22;7873;52.230;12.856;2023-08-01T12:25:02;23.80;57.40
15543;DHT22;7873;52.230;12.856;2023-08-01T12:27:30;23.80;57.30
15543;DHT22;7873;52.230;12.856;2023-08-01T12:29:57;23.80;57.30
15543;DHT22;7873;52.230;12.856;2023-08-01T12:32:23;23.80;57.30
15543;DHT22;7873;52.230;12.856;2023-08-01T12:34:50;23.80;57.20
15543;DHT22;7873;52.230;12.856;2023-08-01T12:37:17;23.80;57.20
15543;DHT22;7873;52.230;12.856;2023-08-01T12:39:44;23.80;57.20
15543;DHT22;7873;52.230;12.856;2023-08-01T12:42:10;23.80;57.20
15543;DHT22;7873;52.230;12.856;2023-08-01T12:44:38;23.80;57.20
15543;DHT22;7873;52.230;12.856;2023-08-01T12:47:05;23.80;57.20
15543;DHT22;7873;52.230;12.856;2023-08-01T12:49:33;23.80;57.20
15543;DHT22;7873;52.230;12.856;2023-08-01T12:52:02;23.80;57.10
15543;DHT22;7873;52.230;12.856;2023-08-01T12:54:29;23.90;57.10
15543;DHT22;7873;52.230;12.856;2023-08-01T12:56:56;23.90;57.00
15543;DHT22;7873;52.230;12.856;2023-08-01T12:59:22;23.90;57.00
15543;DHT22;7873;52.230;12.856;2023-08-01T13:01:50;23.90;57.00
15543;DHT22;7873;52.230;12.856;2023-08-01T13:04:17;23.90;57.00
15543;DHT22;7873;52.230;12.856;2023-08-01T13:06:44;23.90;57.00
15543;DHT22;7873;52.230;12.856;2023-08-01T13:09:11;23.90;56.90
15543;DHT22;7873;52.230;12.856;2023-08-01T13:11:38;23.90;56.90
15543;DHT22;7873;52.230;12.856;2023-08-01T13:14:04;23.90;57.00
15543;DHT22;7873;52.230;12.856;2023-08-01T13:16:31;23.90;57.00
15543;DHT22;7873;52.230;12.856;2023-08-01T13:18:59;23.90;56.90
15543;DHT22;7873;52.230;12.856;2023-08-01T13:21:26;23.90;57.00
15543;DHT22;7873;52.230;12.856;2023-08-01T13:23:52;23.90;56.90
15543;DHT22;7873;52.230;12.856;2023-08-01T13:26:19;23.90;56.70
15543;DHT22;7873;52.230;12.856;2023-08-01T13:28:46;23.90;56.60
15543;DHT22;7873;52.230;12.856;2023-08-01T13:31:13;24.00;56.60
15543;DHT22;7873;52.230;12.856;2023-08-01T13:33:39;24.00;56.60
15543;DHT22;7873;52.230;12.856;2023-08-01T13:36:07;23.90;56.60
15543;DHT22;7873;52.230;12.856;2023-08-01T13:38:34;23.90;56.70
15543;DHT22;7873;52.230;12.856;2023-08-01T13:41:01;23.90;56.70
15543;DHT22;7873;52.230;12.856;2023-08-01T13:43:28;23.90;56.70
15543;DHT22;7873;52.230;12.856;2023-08-01T13:45:54;23.90;56.60
15543;DHT22;7873;52.230;12.856;2023-08-01T13:48:21;23.90;56.60
15543;DHT22;7873;52.230;12.856;2023-08-01T13:50:48;23.90;56.40
15543;DHT22;7873;52.230;12.856;2023-08-01T13:53:16;23.90;56.60
15543;DHT22;7873;52.230;12.856;2023-08-01T13:55:42;23.90;56.60
15543;DHT22;7873;52.230;12.856;2023-08-01T13:58:09;23.90;56.40
15543;DHT22;7873;52.230;12.856;2023-08-01T14:00:36;23.90;56.50
15543;DHT22;7873;52.230;12.856;2023-08-01T14:03:03;24.00;56.40
15543;DHT22;7873;52.230;12.856;2023-08-01T14:05:29;24.10;56.20
15543;DHT22;7873;52.230;12.856;2023-08-01T14:07:56;24.20;55.90
15543;DHT22;7873;52.230;12.856;2023-08-01T14:10:26;24.20;55.70
15543;DHT22;7873;52.230;12.856;2023-08-01T14:12:53;24.20;55.80
15543;DHT22;7873;52.230;12.856;2023-08-01T14:15:19;24.20;55.90
15543;DHT22;7873;52.230;12.856;2023-08-01T14:17:46;24.30;55.70
15543;DHT22;7873;52.230;12.856;2023-08-01T14:20:13;24.40;55.20
15543;DHT22;7873;52.230;12.856;2023-08-01T14:22:40;24.50;54.90
15543;DHT22;7873;52.230;12.856;2023-08-01T14:25:08;24.60;54.70
15543;DHT22;7873;52.230;12.856;2023-08-01T14:27:36;24.60;54.70
15543;DHT22;7873;52.230;12.856;2023-08-01T14:30:03;24.60;54.80
15543;DHT22;7873;52.230;12.856;2023-08-01T14:32:31;24.50;54.70
15543;DHT22;7873;52.230;12.856;2023-08-01T14:34:58;24.50;54.70
15543;DHT22;7873;52.230;12.856;2023-08-01T14:37:25;24.60;54.70
15543;DHT22;7873;52.230;12.856;2023-08-01T14:39:52;24.70;54.20
15543;DHT22;7873;52.230;12.856;2023-08-01T14:42:19;24.70;54.10
15543;DHT22;7873;52.230;12.856;2023-08-01T14:44:52;24.70;54.10
15543;DHT22;7873;52.230;12.856;2023-08-01T14:47:19;24.60;54.10
15543;DHT22;7873;52.230;12.856;2023-08-01T14:49:46;24.50;54.40
15543;DHT22;7873;52.230;12.856;2023-08-01T14:52:13;24.50;54.60
15543;DHT22;7873;52.230;12.856;2023-08-01T14:54:39;24.40;54.70
15543;DHT22;7873;52.230;12.856;2023-08-01T14:57:06;24.40;54.80
15543;DHT22;7873;52.230;12.856;2023-08-01T14:59:33;24.30;55.40
15543;DHT22;7873;52.230;12.856;2023-08-01T15:02:01;24.40;55.00
15543;DHT22;7873;52.230;12.856;2023-08-01T15:04:28;24.50;54.90
15543;DHT22;7873;52.230;12.856;2023-08-01T15:06:55;24.60;54.90
15543;DHT22;7873;52.230;12.856;2023-08-01T15:09:21;24.50;55.00
15543;DHT22;7873;52.230;12.856;2023-08-01T15:11:48;24.60;55.20
15543;DHT22;7873;52.230;12.856;2023-08-01T15:14:15;24.70;55.00
15543;DHT22;7873;52.230;12.856;2023-08-01T15:16:41;24.70;55.30
15543;DHT22;7873;52.230;12.856;2023-08-01T15:19:09;24.60;55.40
15543;DHT22;7873;52.230;12.856;2023-08-01T15:21:36;24.70;55.10
15543;DHT22;7873;52.230;12.856;2023-08-01T15:24:03;24.70;55.20
15543;DHT22;7873;52.230;12.856;2023-08-01T15:26:30;24.80;55.00
15543;DHT22;7873;52.230;12.856;2023-08-01T15:28:57;24.80;54.80
15543;DHT22;7873;52.230;12.856;2023-08-01T15:31:23;24.70;54.30